Surhuisterveen, Netherlands
Current Conditions -  °F | °C
As of 2:55 PM on Monday 24 Nov 2014 (Local Time) from EHLW Reporting Station
Scattered Clouds Scattered Clouds  
Wind Chill: 50°   Ceiling: Unl
Heat Index: 50°   Visibility: 6mi
Dew Point: 43°   Wind: 9mph
Humidity: 76%   Direction: 280°W
Pressure: 30.24"   Gusts: NA
Location:  53.18°N, 6.17°E
Report Text: EHLW 241355Z AUTO 28008KT 9999 NCD 10/06 Q1024 BLU 28010KT 9999 SCT040
Loading
Personal Weather Stations






























Interactive Weather Map New forecast layout! Learn more

10-Day Weather Forecast

Advertisements
Track Severe Weather on mobile